Time;durP1;ratioP1;P1;durP2;ratioP2;P2;SDS_P1;SDS_P2;PMS_P1;PMS_P2;Temp;Humidity;BMP_temperature;BMP_pressure;BME280_temperature;BME280_humidity;BME280_pressure;Samples;Min_cycle;Max_cycle;Signal;HPM_P1;HPM_P2
2023/05/14 00:01:55;;;;;;;10.02;8.35;;;;;;;;;;6283721;22;20015;-93
2023/05/14 00:04:24;;;;;;;9.13;8.43;;;;;;;;;;6283287;22;20026;-94
2023/05/14 00:06:50;;;;;;;12.23;9.15;;;;;;;;;;6309964;22;20433;-93
2023/05/14 00:09:19;;;;;;;9.73;8.73;;;;;;;;;;6283440;22;20022;-93
2023/05/14 00:11:45;;;;;;;8.95;8.05;;;;;;;;;;6283252;22;20021;-93
2023/05/14 00:14:14;;;;;;;12.20;8.88;;;;;;;;;;6283987;22;20093;-92
2023/05/14 00:16:43;;;;;;;10.35;8.35;;;;;;;;;;6282970;22;20027;-92
2023/05/14 00:19:13;;;;;;;9.82;8.82;;;;;;;;;;6283287;22;20015;-93
2023/05/14 00:21:39;;;;;;;10.05;8.02;;;;;;;;;;6283360;22;20073;-93
2023/05/14 00:26:56;;;;;;;9.50;8.55;;;;;;;;;;6298165;22;20015;-93
2023/05/14 00:29:22;;;;;;;13.52;9.13;;;;;;;;;;6283612;22;20015;-94
2023/05/14 00:31:51;;;;;;;9.23;8.50;;;;;;;;;;6284121;22;20097;-93
2023/05/14 00:34:20;;;;;;;9.55;8.48;;;;;;;;;;6309779;22;20019;-93
2023/05/14 00:36:49;;;;;;;8.85;7.95;;;;;;;;;;6286026;22;20060;-93
2023/05/14 00:39:24;;;;;;;9.65;8.57;;;;;;;;;;6311403;22;20023;-93
2023/05/14 00:41:51;;;;;;;13.52;8.60;;;;;;;;;;6285652;22;20094;-93
2023/05/14 00:44:17;;;;;;;10.00;9.00;;;;;;;;;;6310818;22;20480;-93
2023/05/14 00:46:45;;;;;;;9.50;8.25;;;;;;;;;;6285951;22;20152;-93
2023/05/14 00:49:14;;;;;;;9.48;8.65;;;;;;;;;;6310376;22;20018;-93
2023/05/14 00:51:48;;;;;;;9.52;8.57;;;;;;;;;;6284686;22;20016;-94
2023/05/14 00:54:15;;;;;;;9.63;8.70;;;;;;;;;;6310100;22;20022;-81
2023/05/14 00:56:43;;;;;;;10.63;9.23;;;;;;;;;;6283005;22;20372;-82
2023/05/14 00:59:09;;;;;;;10.13;9.02;;;;;;;;;;6308418;22;20011;-81
2023/05/14 01:01:35;;;;;;;9.93;8.82;;;;;;;;;;6283034;22;20015;-82
2023/05/14 01:04:01;;;;;;;12.93;9.63;;;;;;;;;;6282964;22;20019;-83
2023/05/14 01:06:42;;;;;;;10.20;9.30;;;;;;;;;;6309277;22;20329;-82
2023/05/14 01:09:13;;;;;;;9.10;8.32;;;;;;;;;;6308722;22;20015;-82
2023/05/14 01:11:42;;;;;;;10.98;8.90;;;;;;;;;;6282847;22;20064;-83
2023/05/14 01:14:14;;;;;;;9.05;8.35;;;;;;;;;;6309273;22;20015;-83
2023/05/14 01:16:41;;;;;;;10.10;9.20;;;;;;;;;;6282346;22;20441;-82
2023/05/14 01:19:10;;;;;;;12.52;9.25;;;;;;;;;;6282588;22;20022;-83
2023/05/14 01:21:36;;;;;;;11.45;10.18;;;;;;;;;;6308177;22;20022;-83
2023/05/14 01:24:03;;;;;;;14.07;10.15;;;;;;;;;;6308183;22;20460;-83
2023/05/14 01:26:32;;;;;;;10.35;9.45;;;;;;;;;;6308021;22;20016;-83
2023/05/14 01:29:03;;;;;;;9.38;8.52;;;;;;;;;;6308054;22;20055;-83
2023/05/14 01:31:31;;;;;;;9.70;8.73;;;;;;;;;;6308117;22;20046;-83
2023/05/14 01:33:59;;;;;;;10.48;9.50;;;;;;;;;;6309657;22;20442;-83
2023/05/14 01:36:25;;;;;;;10.85;9.85;;;;;;;;;;6307999;22;20091;-84
2023/05/14 01:38:52;;;;;;;10.15;8.98;;;;;;;;;;6283207;22;20090;-83
2023/05/14 01:41:18;;;;;;;11.23;10.15;;;;;;;;;;6309077;22;20325;-83
2023/05/14 01:43:45;;;;;;;12.13;10.55;;;;;;;;;;6310165;22;20054;-83
2023/05/14 01:46:11;;;;;;;11.65;10.23;;;;;;;;;;6281369;22;20045;-82
2023/05/14 01:48:37;;;;;;;11.00;9.52;;;;;;;;;;6282540;22;20061;-82
2023/05/14 01:51:03;;;;;;;10.00;9.00;;;;;;;;;;6307889;22;20011;-83
2023/05/14 01:53:29;;;;;;;11.38;9.82;;;;;;;;;;6308194;22;20047;-83
2023/05/14 01:55:55;;;;;;;13.15;9.65;;;;;;;;;;6281986;22;20023;-82
2023/05/14 01:58:21;;;;;;;10.55;9.52;;;;;;;;;;6308591;22;20026;-83
2023/05/14 02:00:47;;;;;;;11.85;10.48;;;;;;;;;;6307796;22;20020;-83
2023/05/14 02:03:13;;;;;;;11.80;9.25;;;;;;;;;;6308752;22;20039;-82
2023/05/14 02:05:39;;;;;;;10.68;9.43;;;;;;;;;;6283083;22;20129;-83
2023/05/14 02:08:06;;;;;;;11.20;9.88;;;;;;;;;;6281678;22;20094;-84
2023/05/14 02:10:32;;;;;;;10.85;9.75;;;;;;;;;;6307757;22;20022;-83
2023/05/14 02:12:58;;;;;;;12.80;11.50;;;;;;;;;;6281990;22;20380;-83
2023/05/14 02:15:24;;;;;;;11.35;10.13;;;;;;;;;;6281932;22;20337;-83
2023/05/14 02:17:50;;;;;;;14.45;11.15;;;;;;;;;;6307789;22;20015;-83
2023/05/14 02:20:16;;;;;;;11.70;10.45;;;;;;;;;;6307648;22;20015;-83
2023/05/14 02:22:44;;;;;;;11.68;10.50;;;;;;;;;;6307912;22;20089;-83
2023/05/14 02:25:10;;;;;;;13.95;10.32;;;;;;;;;;6307936;22;20090;-83
2023/05/14 02:27:36;;;;;;;10.52;9.68;;;;;;;;;;6281575;22;20015;-83
2023/05/14 02:30:03;;;;;;;11.52;10.50;;;;;;;;;;6282147;22;20145;-83
2023/05/14 02:32:29;;;;;;;12.05;10.95;;;;;;;;;;6307720;22;20433;-83
2023/05/14 02:34:55;;;;;;;13.52;11.52;;;;;;;;;;6281697;22;20019;-83
2023/05/14 02:37:21;;;;;;;12.27;11.18;;;;;;;;;;6308403;22;20106;-83
2023/05/14 02:39:48;;;;;;;17.15;14.23;;;;;;;;;;6282792;22;20019;-83
2023/05/14 02:42:14;;;;;;;16.48;14.43;;;;;;;;;;6308384;22;20082;-83
2023/05/14 02:44:40;;;;;;;15.77;12.82;;;;;;;;;;6307332;22;20018;-83
2023/05/14 02:47:06;;;;;;;12.75;11.65;;;;;;;;;;6281673;22;20053;-83
2023/05/14 02:49:32;;;;;;;12.32;10.98;;;;;;;;;;6281448;22;20022;-83
2023/05/14 02:51:59;;;;;;;12.65;11.45;;;;;;;;;;6281476;22;20045;-83
2023/05/14 02:54:26;;;;;;;13.55;12.20;;;;;;;;;;6306992;22;20023;-82
2023/05/14 02:56:52;;;;;;;13.02;11.15;;;;;;;;;;6308604;22;20053;-83
2023/05/14 02:59:18;;;;;;;12.95;11.65;;;;;;;;;;6307464;22;20019;-84
2023/05/14 03:01:44;;;;;;;13.95;12.38;;;;;;;;;;6281853;22;20019;-83
2023/05/14 03:04:10;;;;;;;13.07;11.90;;;;;;;;;;6308684;22;20024;-83
2023/05/14 03:06:36;;;;;;;13.50;12.20;;;;;;;;;;6308011;22;20027;-83
2023/05/14 03:09:02;;;;;;;12.57;11.48;;;;;;;;;;6282422;22;20019;-83
2023/05/14 03:11:28;;;;;;;13.55;12.32;;;;;;;;;;6307366;22;20437;-83
2023/05/14 03:13:54;;;;;;;12.98;11.63;;;;;;;;;;6307987;22;20011;-83
2023/05/14 03:16:20;;;;;;;14.13;12.68;;;;;;;;;;6307019;22;20102;-83
2023/05/14 03:18:46;;;;;;;12.32;11.23;;;;;;;;;;6306968;22;20015;-83
2023/05/14 03:21:12;;;;;;;12.60;11.57;;;;;;;;;;6306982;22;20337;-83
2023/05/14 03:23:38;;;;;;;13.68;12.27;;;;;;;;;;6282280;22;20096;-83
2023/05/14 03:26:05;;;;;;;14.50;13.18;;;;;;;;;;6307102;22;20023;-84
2023/05/14 03:28:31;;;;;;;16.02;12.50;;;;;;;;;;6306872;22;20019;-83
2023/05/14 03:30:57;;;;;;;13.75;12.32;;;;;;;;;;6281794;22;20106;-83
2023/05/14 03:33:23;;;;;;;13.38;12.15;;;;;;;;;;6282587;22;20011;-83
2023/05/14 03:35:50;;;;;;;13.52;12.32;;;;;;;;;;6307842;22;20019;-83
2023/05/14 03:38:16;;;;;;;15.07;13.60;;;;;;;;;;6281275;22;20026;-83
2023/05/14 03:40:44;;;;;;;13.68;12.32;;;;;;;;;;6307139;22;20424;-83
2023/05/14 03:43:10;;;;;;;16.95;14.55;;;;;;;;;;6306682;22;20015;-83
2023/05/14 03:45:36;;;;;;;15.13;13.88;;;;;;;;;;6280870;22;20015;-84
2023/05/14 03:48:02;;;;;;;16.70;14.82;;;;;;;;;;6306620;22;20015;-83
2023/05/14 03:50:28;;;;;;;18.30;15.50;;;;;;;;;;6307017;22;20068;-83
2023/05/14 03:52:55;;;;;;;16.00;14.50;;;;;;;;;;6306693;22;20015;-83
2023/05/14 03:55:21;;;;;;;18.20;14.75;;;;;;;;;;6306420;22;20026;-83
2023/05/14 03:57:47;;;;;;;14.95;13.45;;;;;;;;;;6280843;22;20565;-83
2023/05/14 04:00:14;;;;;;;18.75;16.38;;;;;;;;;;6307597;22;20110;-83
2023/05/14 04:02:40;;;;;;;18.27;16.35;;;;;;;;;;6307521;22;20291;-83
2023/05/14 04:05:06;;;;;;;16.75;15.25;;;;;;;;;;6307545;22;20020;-83
2023/05/14 04:07:32;;;;;;;16.95;14.95;;;;;;;;;;6306040;22;20015;-83
2023/05/14 04:09:59;;;;;;;15.95;14.10;;;;;;;;;;6306244;22;20438;-83
2023/05/14 04:12:25;;;;;;;15.88;14.30;;;;;;;;;;6306603;22;20050;-84
2023/05/14 04:14:52;;;;;;;15.10;13.70;;;;;;;;;;6281297;22;20011;-83
2023/05/14 04:17:18;;;;;;;16.52;14.90;;;;;;;;;;6306371;22;20348;-84
2023/05/14 04:19:44;;;;;;;17.67;15.82;;;;;;;;;;6307478;22;20018;-84
2023/05/14 04:22:10;;;;;;;19.73;14.40;;;;;;;;;;6306586;22;20398;-84
2023/05/14 04:24:36;;;;;;;13.98;12.57;;;;;;;;;;6306513;22;20015;-84
2023/05/14 04:27:02;;;;;;;16.15;14.60;;;;;;;;;;6306708;22;20011;-84
2023/05/14 04:29:28;;;;;;;15.65;14.15;;;;;;;;;;6306447;22;20015;-84
2023/05/14 04:31:54;;;;;;;15.35;13.85;;;;;;;;;;6306451;22;20018;-84
2023/05/14 04:34:20;;;;;;;14.95;13.45;;;;;;;;;;6307437;22;20015;-84
2023/05/14 04:36:47;;;;;;;14.27;13.00;;;;;;;;;;6306497;22;20438;-84
2023/05/14 04:39:13;;;;;;;15.63;14.10;;;;;;;;;;6280839;22;20020;-84
2023/05/14 04:41:40;;;;;;;15.43;13.82;;;;;;;;;;6280907;22;20019;-84
2023/05/14 04:44:06;;;;;;;15.90;14.23;;;;;;;;;;6281590;22;20019;-84
2023/05/14 04:46:32;;;;;;;15.65;14.07;;;;;;;;;;6306191;22;20050;-85
2023/05/14 04:48:58;;;;;;;15.30;13.98;;;;;;;;;;6281768;22;20094;-84
2023/05/14 04:51:25;;;;;;;15.70;14.20;;;;;;;;;;6306629;22;20015;-84
2023/05/14 04:53:51;;;;;;;15.13;13.75;;;;;;;;;;6281794;22;20491;-84
2023/05/14 04:56:17;;;;;;;14.77;13.48;;;;;;;;;;6306441;22;20033;-84
2023/05/14 04:58:43;;;;;;;15.70;14.27;;;;;;;;;;6306359;22;20345;-84
2023/05/14 05:01:09;;;;;;;15.82;13.85;;;;;;;;;;6280839;22;20015;-83
2023/05/14 05:03:35;;;;;;;15.02;13.68;;;;;;;;;;6280788;22;20342;-83
2023/05/14 05:06:01;;;;;;;15.10;13.75;;;;;;;;;;6280405;22;20338;-83
2023/05/14 05:08:28;;;;;;;15.65;14.05;;;;;;;;;;6280652;22;20026;-83
2023/05/14 05:10:54;;;;;;;16.23;14.60;;;;;;;;;;6306276;22;20098;-83
2023/05/14 05:13:20;;;;;;;15.48;13.98;;;;;;;;;;6280530;22;20072;-84
2023/05/14 05:15:46;;;;;;;16.48;14.98;;;;;;;;;;6306271;22;20333;-83
2023/05/14 05:18:12;;;;;;;22.25;15.40;;;;;;;;;;6306450;22;20437;-84
2023/05/14 05:20:38;;;;;;;16.38;14.75;;;;;;;;;;6308108;22;20363;-84
2023/05/14 05:23:04;;;;;;;17.80;15.48;;;;;;;;;;6308202;22;20329;-83
2023/05/14 05:25:30;;;;;;;17.13;15.38;;;;;;;;;;6308997;22;20338;-83
2023/05/14 05:27:56;;;;;;;16.55;14.88;;;;;;;;;;6283337;22;20098;-84
2023/05/14 05:30:22;;;;;;;17.42;15.15;;;;;;;;;;6308358;22;20022;-84
2023/05/14 05:32:48;;;;;;;18.42;16.35;;;;;;;;;;6308489;22;20475;-84
2023/05/14 05:35:14;;;;;;;18.70;16.63;;;;;;;;;;6308989;22;20018;-84
2023/05/14 05:37:40;;;;;;;16.52;14.75;;;;;;;;;;6283422;22;20019;-84
2023/05/14 05:40:07;;;;;;;18.75;16.92;;;;;;;;;;6308140;22;20023;-84
2023/05/14 05:42:34;;;;;;;16.67;14.93;;;;;;;;;;6282577;22;20030;-84
2023/05/14 05:45:00;;;;;;;19.75;17.55;;;;;;;;;;6307934;22;20022;-83
2023/05/14 05:47:26;;;;;;;17.63;15.63;;;;;;;;;;6307633;22;20011;-83
2023/05/14 05:49:52;;;;;;;17.90;16.08;;;;;;;;;;6307850;22;20441;-83
2023/05/14 05:52:19;;;;;;;17.67;14.98;;;;;;;;;;6282040;22;20445;-83
2023/05/14 05:54:45;;;;;;;18.77;16.30;;;;;;;;;;6307619;22;20016;-83
2023/05/14 05:57:11;;;;;;;18.85;15.30;;;;;;;;;;6308558;22;20068;-83
2023/05/14 05:59:37;;;;;;;16.75;15.05;;;;;;;;;;6307817;22;20023;-83
2023/05/14 06:02:03;;;;;;;17.55;15.82;;;;;;;;;;6307832;22;20025;-83
2023/05/14 06:04:29;;;;;;;16.75;15.23;;;;;;;;;;6307697;22;20019;-83
2023/05/14 06:06:55;;;;;;;17.83;16.33;;;;;;;;;;6282907;22;20325;-83
2023/05/14 06:09:21;;;;;;;18.40;14.88;;;;;;;;;;6310024;22;20015;-83
2023/05/14 06:11:47;;;;;;;17.80;15.95;;;;;;;;;;6307726;22;20081;-83
2023/05/14 06:14:13;;;;;;;16.30;14.85;;;;;;;;;;6282080;22;20445;-83
2023/05/14 06:16:40;;;;;;;17.90;15.63;;;;;;;;;;6308630;22;20015;-83
2023/05/14 06:19:07;;;;;;;17.30;15.52;;;;;;;;;;6308699;22;20034;-84
2023/05/14 06:21:33;;;;;;;16.88;15.27;;;;;;;;;;6308691;22;20325;-83
2023/05/14 06:23:59;;;;;;;16.48;14.80;;;;;;;;;;6307706;22;20015;-83
2023/05/14 06:26:25;;;;;;;16.30;14.68;;;;;;;;;;6307862;22;20404;-83
2023/05/14 06:28:51;;;;;;;17.25;15.45;;;;;;;;;;6282771;22;20011;-84
2023/05/14 06:31:18;;;;;;;15.65;14.35;;;;;;;;;;6281746;22;20051;-83
2023/05/14 06:33:44;;;;;;;14.98;13.60;;;;;;;;;;6307418;22;20015;-84
2023/05/14 06:36:10;;;;;;;16.25;14.77;;;;;;;;;;6307464;22;20026;-83
2023/05/14 06:38:36;;;;;;;15.23;13.95;;;;;;;;;;6307424;22;20023;-83
2023/05/14 06:41:02;;;;;;;16.48;14.80;;;;;;;;;;6281857;22;20170;-83
2023/05/14 06:43:29;;;;;;;15.93;14.10;;;;;;;;;;6281781;22;20015;-83
2023/05/14 06:45:55;;;;;;;15.52;14.15;;;;;;;;;;6281620;22;20384;-82
2023/05/14 06:48:21;;;;;;;14.98;13.52;;;;;;;;;;6307218;22;20073;-83
2023/05/14 06:50:47;;;;;;;14.57;13.27;;;;;;;;;;6307302;22;20140;-83
2023/05/14 06:53:14;;;;;;;16.08;14.48;;;;;;;;;;6307283;22;20023;-83
2023/05/14 06:55:40;;;;;;;14.43;13.13;;;;;;;;;;6307043;22;20029;-83
2023/05/14 06:58:06;;;;;;;14.48;13.18;;;;;;;;;;6281664;22;20441;-83
2023/05/14 07:00:32;;;;;;;14.02;12.70;;;;;;;;;;6307140;22;20050;-84
2023/05/14 07:02:58;;;;;;;14.82;13.35;;;;;;;;;;6307201;22;20447;-83
2023/05/14 07:05:25;;;;;;;14.75;12.77;;;;;;;;;;6281612;22;20395;-83
2023/05/14 07:07:51;;;;;;;14.32;13.00;;;;;;;;;;6307142;22;20093;-83
2023/05/14 07:10:17;;;;;;;14.25;13.05;;;;;;;;;;6281569;22;20311;-83
2023/05/14 07:12:44;;;;;;;13.68;12.38;;;;;;;;;;6308087;22;20011;-83
2023/05/14 07:15:11;;;;;;;12.27;11.27;;;;;;;;;;6282234;22;20057;-83
2023/05/14 07:17:37;;;;;;;13.15;12.05;;;;;;;;;;6282158;22;20026;-83
2023/05/14 07:20:03;;;;;;;13.82;12.55;;;;;;;;;;6307330;22;20065;-83
2023/05/14 07:22:29;;;;;;;12.48;11.38;;;;;;;;;;6307981;22;20019;-83
2023/05/14 07:24:55;;;;;;;11.57;10.48;;;;;;;;;;6281324;22;20090;-83
2023/05/14 07:27:21;;;;;;;12.68;11.05;;;;;;;;;;6281532;22;20015;-83
2023/05/14 07:29:47;;;;;;;12.55;11.25;;;;;;;;;;6307952;22;20046;-83
2023/05/14 07:32:13;;;;;;;12.23;11.23;;;;;;;;;;6307190;22;20011;-83
2023/05/14 07:34:40;;;;;;;11.02;9.93;;;;;;;;;;6281386;22;20029;-84
2023/05/14 07:37:06;;;;;;;12.23;10.27;;;;;;;;;;6307813;22;20318;-83
2023/05/14 07:39:32;;;;;;;12.02;10.85;;;;;;;;;;6306785;22;20019;-84
2023/05/14 07:41:59;;;;;;;11.07;10.10;;;;;;;;;;6306840;22;20015;-83
2023/05/14 07:44:25;;;;;;;13.13;10.43;;;;;;;;;;6308641;22;20097;-83
2023/05/14 07:46:51;;;;;;;11.48;10.43;;;;;;;;;;6280986;22;20054;-83
2023/05/14 07:49:17;;;;;;;10.75;9.75;;;;;;;;;;6307818;22;20023;-83
2023/05/14 07:51:43;;;;;;;10.82;9.82;;;;;;;;;;6306761;22;20319;-83
2023/05/14 07:54:10;;;;;;;12.20;11.00;;;;;;;;;;6306686;22;20023;-82
2023/05/14 07:56:36;;;;;;;11.30;10.20;;;;;;;;;;6306256;22;20027;-83
2023/05/14 07:59:02;;;;;;;10.07;9.07;;;;;;;;;;6281438;22;20034;-83
2023/05/14 08:01:30;;;;;;;10.20;9.20;;;;;;;;;;6282067;22;20022;-83
2023/05/14 08:03:56;;;;;;;12.45;11.20;;;;;;;;;;6307068;22;20336;-83
2023/05/14 08:06:22;;;;;;;11.25;10.13;;;;;;;;;;6306815;22;20015;-83
2023/05/14 08:08:48;;;;;;;10.45;9.75;;;;;;;;;;6280850;22;20025;-83
2023/05/14 08:11:14;;;;;;;10.95;9.85;;;;;;;;;;6308201;22;20019;-82
2023/05/14 08:13:40;;;;;;;9.65;8.85;;;;;;;;;;6280922;22;20012;-83
2023/05/14 08:16:07;;;;;;;11.00;8.77;;;;;;;;;;6307593;22;20078;-84
2023/05/14 08:18:33;;;;;;;9.00;8.27;;;;;;;;;;6280982;22;20015;-83
2023/05/14 08:20:59;;;;;;;11.57;10.38;;;;;;;;;;6281956;22;20020;-83
2023/05/14 08:23:25;;;;;;;11.02;9.88;;;;;;;;;;6306533;22;20015;-83
2023/05/14 08:25:51;;;;;;;11.93;10.68;;;;;;;;;;6306019;22;20073;-84
2023/05/14 08:28:17;;;;;;;10.13;9.32;;;;;;;;;;6306795;22;20449;-84
2023/05/14 08:30:43;;;;;;;9.45;8.63;;;;;;;;;;6281201;22;20011;-86
2023/05/14 08:33:09;;;;;;;11.60;9.60;;;;;;;;;;6306456;22;20502;-84
2023/05/14 08:35:35;;;;;;;10.23;9.32;;;;;;;;;;6306786;22;20011;-84
2023/05/14 08:38:01;;;;;;;8.80;8.20;;;;;;;;;;6280628;22;20019;-84
2023/05/14 08:40:27;;;;;;;11.43;9.15;;;;;;;;;;6280801;22;20072;-84
2023/05/14 08:42:55;;;;;;;10.48;9.57;;;;;;;;;;6306408;22;20368;-83
2023/05/14 08:45:24;;;;;;;10.27;9.55;;;;;;;;;;6306398;22;20022;-83
2023/05/14 08:47:50;;;;;;;9.55;8.85;;;;;;;;;;6307733;22;20090;-83
2023/05/14 08:50:18;;;;;;;10.65;9.60;;;;;;;;;;6306320;22;20022;-84
2023/05/14 08:52:44;;;;;;;10.15;9.43;;;;;;;;;;6306377;22;20095;-83
2023/05/14 08:55:12;;;;;;;10.20;8.95;;;;;;;;;;6281589;22;20445;-84
2023/05/14 08:57:38;;;;;;;12.70;11.07;;;;;;;;;;6308471;22;20468;-84
2023/05/14 09:00:10;;;;;;;11.35;10.45;;;;;;;;;;6309414;22;20023;-84
2023/05/14 09:02:36;;;;;;;11.68;10.70;;;;;;;;;;6309408;22;20429;-84
2023/05/14 09:05:03;;;;;;;11.70;10.60;;;;;;;;;;6282599;22;20011;-84
2023/05/14 09:07:29;;;;;;;11.90;10.77;;;;;;;;;;6308143;22;20012;-85
2023/05/14 09:09:55;;;;;;;12.00;10.90;;;;;;;;;;6282501;22;20405;-85
2023/05/14 09:12:21;;;;;;;10.40;9.68;;;;;;;;;;6282448;22;20103;-86
2023/05/14 09:14:48;;;;;;;10.75;9.70;;;;;;;;;;6308206;22;20033;-85
2023/05/14 09:17:15;;;;;;;11.32;10.52;;;;;;;;;;6283198;22;20015;-85
2023/05/14 09:19:42;;;;;;;10.73;9.65;;;;;;;;;;6308251;22;20015;-85
2023/05/14 09:22:09;;;;;;;9.75;8.93;;;;;;;;;;6282381;22;20437;-85
2023/05/14 09:24:35;;;;;;;9.40;8.63;;;;;;;;;;6308116;22;20015;-86
2023/05/14 09:27:01;;;;;;;10.02;8.68;;;;;;;;;;6281825;22;20026;-85
2023/05/14 09:29:28;;;;;;;10.15;9.30;;;;;;;;;;6308342;22;20420;-85
2023/05/14 09:31:55;;;;;;;9.50;8.65;;;;;;;;;;6282406;22;20019;-85
2023/05/14 09:34:29;;;;;;;8.98;8.25;;;;;;;;;;6282245;22;20051;-85
2023/05/14 09:36:59;;;;;;;8.45;7.13;;;;;;;;;;6308925;22;20073;-85
2023/05/14 09:39:25;;;;;;;7.57;7.07;;;;;;;;;;6308094;22;20015;-85
2023/05/14 09:41:51;;;;;;;8.63;7.20;;;;;;;;;;6307993;22;20054;-85
2023/05/14 09:44:18;;;;;;;7.80;7.10;;;;;;;;;;6308014;22;20026;-85
2023/05/14 09:46:45;;;;;;;8.43;7.60;;;;;;;;;;6281941;22;20015;-84
2023/05/14 09:49:11;;;;;;;8.70;7.80;;;;;;;;;;6307983;22;20022;-84
2023/05/14 09:51:38;;;;;;;7.70;7.13;;;;;;;;;;6281686;22;20023;-84
2023/05/14 09:54:05;;;;;;;7.82;6.95;;;;;;;;;;6307634;22;20023;-84
2023/05/14 09:56:31;;;;;;;7.20;6.65;;;;;;;;;;6282144;22;20017;-84
2023/05/14 09:58:57;;;;;;;8.80;6.93;;;;;;;;;;6282121;22;20019;-85
2023/05/14 10:01:24;;;;;;;6.60;6.10;;;;;;;;;;6308212;22;20015;-84
2023/05/14 10:03:50;;;;;;;7.63;7.00;;;;;;;;;;6307969;22;20058;-84
2023/05/14 10:06:18;;;;;;;8.10;6.72;;;;;;;;;;6308416;22;20483;-84
2023/05/14 10:08:46;;;;;;;8.77;7.88;;;;;;;;;;6308011;22;20011;-84
2023/05/14 10:11:13;;;;;;;8.35;7.72;;;;;;;;;;6308087;22;20049;-84
2023/05/14 10:13:41;;;;;;;8.95;8.15;;;;;;;;;;6307987;22;20012;-84
2023/05/14 10:16:15;;;;;;;8.52;7.80;;;;;;;;;;6307718;22;20445;-83
2023/05/14 10:18:45;;;;;;;8.68;7.93;;;;;;;;;;6308081;22;20334;-84
2023/05/14 10:21:12;;;;;;;7.53;7.03;;;;;;;;;;6308136;22;20019;-83
2023/05/14 10:23:39;;;;;;;7.75;6.95;;;;;;;;;;6309252;22;20027;-84
2023/05/14 10:26:05;;;;;;;6.60;5.95;;;;;;;;;;6282182;22;20015;-83
2023/05/14 10:28:32;;;;;;;7.13;6.25;;;;;;;;;;6307623;22;20062;-84
2023/05/14 10:30:59;;;;;;;9.05;6.85;;;;;;;;;;6308582;22;20027;-84
2023/05/14 10:33:26;;;;;;;7.10;6.47;;;;;;;;;;6307523;22;20015;-84
2023/05/14 10:36:05;;;;;;;6.95;5.72;;;;;;;;;;6282140;22;20019;-84
2023/05/14 10:38:33;;;;;;;6.15;5.10;;;;;;;;;;6281725;22;20026;-84
2023/05/14 10:40:59;;;;;;;4.80;4.35;;;;;;;;;;6282012;22;20101;-83
2023/05/14 10:43:28;;;;;;;4.75;4.35;;;;;;;;;;6307264;22;20015;-84
2023/05/14 10:45:54;;;;;;;6.88;6.03;;;;;;;;;;6307060;22;20082;-84
2023/05/14 10:48:21;;;;;;;7.65;5.88;;;;;;;;;;6307315;22;20046;-84
2023/05/14 10:50:48;;;;;;;6.07;5.55;;;;;;;;;;6308190;22;20022;-84
2023/05/14 10:53:14;;;;;;;8.57;6.38;;;;;;;;;;6307373;22;20012;-84
2023/05/14 10:55:42;;;;;;;9.02;6.18;;;;;;;;;;6307281;22;20019;-84
2023/05/14 10:58:09;;;;;;;5.00;4.47;;;;;;;;;;6307267;22;20023;-84
2023/05/14 11:00:36;;;;;;;5.20;4.78;;;;;;;;;;6308348;22;20089;-84
2023/05/14 11:03:03;;;;;;;4.60;4.28;;;;;;;;;;6281488;22;20022;-83
2023/05/14 11:05:29;;;;;;;4.45;4.05;;;;;;;;;;6281111;22;20019;-84
2023/05/14 11:07:56;;;;;;;6.45;5.18;;;;;;;;;;6282371;22;20015;-86
2023/05/14 11:10:24;;;;;;;5.38;4.97;;;;;;;;;;6307724;22;20025;-84
2023/05/14 11:12:51;;;;;;;5.05;4.65;;;;;;;;;;6308166;22;20448;-84
2023/05/14 11:15:19;;;;;;;5.32;4.80;;;;;;;;;;6307179;22;20027;-84
2023/05/14 11:17:45;;;;;;;5.35;5.05;;;;;;;;;;6306940;22;20019;-84
2023/05/14 11:20:12;;;;;;;6.40;5.63;;;;;;;;;;6308012;22;20437;-84
2023/05/14 11:22:39;;;;;;;5.55;5.15;;;;;;;;;;6281531;22;20118;-84
2023/05/14 11:25:06;;;;;;;5.18;4.78;;;;;;;;;;6281263;22;20015;-84
2023/05/14 11:27:36;;;;;;;5.95;5.53;;;;;;;;;;6307898;22;20015;-84
2023/05/14 11:30:03;;;;;;;5.22;4.72;;;;;;;;;;6307321;22;20015;-84
2023/05/14 11:32:31;;;;;;;5.07;4.60;;;;;;;;;;6281203;22;20026;-85
2023/05/14 11:34:57;;;;;;;4.97;4.68;;;;;;;;;;6307920;22;20429;-85
2023/05/14 11:37:23;;;;;;;7.57;4.20;;;;;;;;;;6306958;22;20018;-85
2023/05/14 11:39:51;;;;;;;4.45;4.13;;;;;;;;;;6281067;22;20019;-85
2023/05/14 11:42:18;;;;;;;5.70;4.93;;;;;;;;;;6307893;22;20495;-85
2023/05/14 11:44:48;;;;;;;5.97;4.25;;;;;;;;;;6307710;22;20015;-84
2023/05/14 11:47:14;;;;;;;5.43;4.55;;;;;;;;;;6306649;22;20289;-84
2023/05/14 11:49:40;;;;;;;4.30;4.00;;;;;;;;;;6306880;22;20019;-84
2023/05/14 11:52:10;;;;;;;4.00;3.60;;;;;;;;;;6306839;22;20015;-84
2023/05/14 11:54:36;;;;;;;4.43;4.03;;;;;;;;;;6306366;22;20034;-84
2023/05/14 11:57:23;;;;;;;6.70;4.05;;;;;;;;;;6307186;22;20030;-84
2023/05/14 11:59:56;;;;;;;4.07;3.40;;;;;;;;;;6306907;22;20504;-84
2023/05/14 12:02:22;;;;;;;4.28;3.83;;;;;;;;;;6281286;22;20019;-84
2023/05/14 12:04:51;;;;;;;4.13;3.92;;;;;;;;;;6280810;22;20448;-84
2023/05/14 12:07:17;;;;;;;4.25;3.78;;;;;;;;;;6307645;22;20103;-84
2023/05/14 12:09:48;;;;;;;4.35;3.85;;;;;;;;;;6280860;22;20020;-84
2023/05/14 12:12:16;;;;;;;7.32;3.97;;;;;;;;;;6308268;22;20026;-84
2023/05/14 12:14:42;;;;;;;3.92;3.63;;;;;;;;;;6281216;22;20019;-84
2023/05/14 12:17:35;;;;;;;4.65;4.25;;;;;;;;;;6306488;22;20090;-84
2023/05/14 12:20:01;;;;;;;5.07;4.03;;;;;;;;;;6302713;22;20011;-84
2023/05/14 12:22:29;;;;;;;3.10;2.90;;;;;;;;;;6306898;22;20045;-84
2023/05/14 12:24:59;;;;;;;5.40;2.85;;;;;;;;;;6306498;22;20460;-84
2023/05/14 12:27:26;;;;;;;5.82;2.85;;;;;;;;;;6307451;22;20015;-83
2023/05/14 12:30:02;;;;;;;2.72;1.67;;;;;;;;;;6307324;22;20019;-83
2023/05/14 12:32:31;;;;;;;4.15;2.20;;;;;;;;;;6307567;22;20011;-83
2023/05/14 12:34:57;;;;;;;2.13;1.67;;;;;;;;;;6307535;22;20026;-83
2023/05/14 12:37:23;;;;;;;5.63;1.70;;;;;;;;;;6306833;22;20015;-83
2023/05/14 12:39:49;;;;;;;3.40;1.70;;;;;;;;;;6306472;22;20517;-83
2023/05/14 12:42:15;;;;;;;2.47;1.90;;;;;;;;;;6307456;22;20011;-83
2023/05/14 12:44:41;;;;;;;3.10;2.70;;;;;;;;;;6306799;22;20019;-83
2023/05/14 12:47:07;;;;;;;2.30;1.98;;;;;;;;;;6307875;22;20044;-83
2023/05/14 12:49:33;;;;;;;2.40;1.33;;;;;;;;;;6306924;22;20321;-83
2023/05/14 12:51:59;;;;;;;5.53;1.30;;;;;;;;;;6307404;22;20018;-83
2023/05/14 12:54:26;;;;;;;4.45;2.08;;;;;;;;;;6280463;22;20041;-82
2023/05/14 12:56:52;;;;;;;4.07;2.10;;;;;;;;;;6306420;22;20023;-82
2023/05/14 12:59:18;;;;;;;3.92;1.70;;;;;;;;;;6306346;22;20349;-82
2023/05/14 13:01:44;;;;;;;3.67;1.77;;;;;;;;;;6280592;22;20023;-83
2023/05/14 13:04:13;;;;;;;3.10;1.55;;;;;;;;;;6281794;22;20042;-83
2023/05/14 13:06:39;;;;;;;2.58;2.03;;;;;;;;;;6305820;22;20019;-83
2023/05/14 13:09:06;;;;;;;3.97;1.73;;;;;;;;;;6306285;22;20093;-82
2023/05/14 13:11:32;;;;;;;4.30;1.42;;;;;;;;;;6280206;22;20015;-82
2023/05/14 13:13:58;;;;;;;3.35;1.40;;;;;;;;;;6306635;22;20089;-83
2023/05/14 13:16:28;;;;;;;3.65;1.58;;;;;;;;;;6307466;22;20359;-82
2023/05/14 13:18:54;;;;;;;1.52;1.25;;;;;;;;;;6306281;22;20034;-83
2023/05/14 13:21:20;;;;;;;2.22;1.42;;;;;;;;;;6306260;22;20064;-83
2023/05/14 13:23:47;;;;;;;3.97;1.42;;;;;;;;;;6280782;22;20031;-82
2023/05/14 13:26:13;;;;;;;2.50;1.17;;;;;;;;;;6280364;22;20019;-82
2023/05/14 13:28:39;;;;;;;3.72;1.27;;;;;;;;;;6305862;22;20540;-83
2023/05/14 13:31:09;;;;;;;3.45;0.98;;;;;;;;;;6280805;22;20098;-83
2023/05/14 13:33:36;;;;;;;5.20;0.70;;;;;;;;;;6306176;22;20445;-82
2023/05/14 13:36:03;;;;;;;1.40;0.63;;;;;;;;;;6306995;22;20069;-82
2023/05/14 13:38:29;;;;;;;1.70;0.80;;;;;;;;;;6306194;22;20016;-82
2023/05/14 13:41:00;;;;;;;2.15;0.60;;;;;;;;;;6306069;22;20047;-86
2023/05/14 13:43:26;;;;;;;2.10;0.80;;;;;;;;;;6308774;22;20050;-87
2023/05/14 13:45:52;;;;;;;2.17;0.63;;;;;;;;;;6307848;22;20511;-87
2023/05/14 13:48:18;;;;;;;2.35;0.95;;;;;;;;;;6307884;22;20015;-87
2023/05/14 13:50:44;;;;;;;3.58;0.90;;;;;;;;;;6283312;22;20042;-88
2023/05/14 13:53:10;;;;;;;1.42;0.60;;;;;;;;;;6308619;22;20053;-88
2023/05/14 13:55:36;;;;;;;2.88;0.80;;;;;;;;;;6281808;22;20026;-87
2023/05/14 13:58:02;;;;;;;4.47;1.25;;;;;;;;;;6282414;22;20101;-87
2023/05/14 14:00:29;;;;;;;2.90;0.82;;;;;;;;;;6307812;22;20019;-87
2023/05/14 14:02:55;;;;;;;3.55;0.95;;;;;;;;;;6282384;22;20064;-87
2023/05/14 14:05:22;;;;;;;2.15;1.13;;;;;;;;;;6308782;22;20011;-86
2023/05/14 14:07:48;;;;;;;3.88;0.70;;;;;;;;;;6281801;22;20072;-86
2023/05/14 14:10:14;;;;;;;4.90;1.00;;;;;;;;;;6307680;22;20022;-86
2023/05/14 14:12:40;;;;;;;2.13;0.70;;;;;;;;;;6308061;22;20042;-86
2023/05/14 14:15:07;;;;;;;2.10;0.85;;;;;;;;;;6281487;22;20046;-86
2023/05/14 14:17:33;;;;;;;2.17;0.70;;;;;;;;;;6281962;22;20068;-86
2023/05/14 14:19:59;;;;;;;1.20;0.50;;;;;;;;;;6282164;22;20464;-86
2023/05/14 14:22:25;;;;;;;2.35;0.70;;;;;;;;;;6308628;22;20313;-86
2023/05/14 14:24:53;;;;;;;2.15;0.88;;;;;;;;;;6307269;22;20017;-86
2023/05/14 14:27:19;;;;;;;1.02;0.60;;;;;;;;;;6307794;22;20012;-86
2023/05/14 14:29:45;;;;;;;5.22;0.70;;;;;;;;;;6282833;22;20015;-85